sensor_id;sensor_type;location;lat;lon;timestamp;pressure;altitude;pressure_sealevel;temperature;humidity
9187;BME280;7273;48.902;9.410;2023-06-26T00:02:12;97932.22;;;19.99;45.82
9187;BME280;7273;48.902;9.410;2023-06-26T00:04:38;97936.91;;;19.99;46.03
9187;BME280;7273;48.902;9.410;2023-06-26T00:07:04;97941.50;;;19.95;46.01
9187;BME280;7273;48.902;9.410;2023-06-26T00:09:30;97941.72;;;19.90;46.10
9187;BME280;7273;48.902;9.410;2023-06-26T00:11:56;97934.94;;;19.87;46.28
9187;BME280;7273;48.902;9.410;2023-06-26T00:14:22;97943.03;;;19.84;46.27
9187;BME280;7273;48.902;9.410;2023-06-26T00:16:48;97945.34;;;19.82;46.24
9187;BME280;7273;48.902;9.410;2023-06-26T00:19:16;97950.38;;;19.80;46.43
9187;BME280;7273;48.902;9.410;2023-06-26T00:21:42;97939.94;;;19.73;46.37
9187;BME280;7273;48.902;9.410;2023-06-26T00:24:14;97944.97;;;19.71;46.50
9187;BME280;7273;48.902;9.410;2023-06-26T00:26:40;97949.19;;;19.69;46.54
9187;BME280;7273;48.902;9.410;2023-06-26T00:29:06;97955.81;;;19.68;46.45
9187;BME280;7273;48.902;9.410;2023-06-26T00:31:31;97951.69;;;19.62;46.86
9187;BME280;7273;48.902;9.410;2023-06-26T00:33:57;97949.63;;;19.59;46.80
9187;BME280;7273;48.902;9.410;2023-06-26T00:36:25;97957.72;;;19.55;47.00
9187;BME280;7273;48.902;9.410;2023-06-26T00:38:52;97954.84;;;19.52;46.93
9187;BME280;7273;48.902;9.410;2023-06-26T00:41:19;97954.22;;;19.46;47.16
9187;BME280;7273;48.902;9.410;2023-06-26T00:43:45;97949.63;;;19.38;47.29
9187;BME280;7273;48.902;9.410;2023-06-26T00:46:13;97952.56;;;19.33;47.49
9187;BME280;7273;48.902;9.410;2023-06-26T00:48:41;97946.94;;;19.30;47.47
9187;BME280;7273;48.902;9.410;2023-06-26T00:51:07;97951.66;;;19.29;47.30
9187;BME280;7273;48.902;9.410;2023-06-26T00:53:34;97948.28;;;19.24;47.50
9187;BME280;7273;48.902;9.410;2023-06-26T00:56:01;97943.59;;;19.24;47.42
9187;BME280;7273;48.902;9.410;2023-06-26T00:58:27;97947.47;;;19.23;47.53
9187;BME280;7273;48.902;9.410;2023-06-26T01:00:53;97946.53;;;19.19;47.60
9187;BME280;7273;48.902;9.410;2023-06-26T01:03:21;97937.03;;;19.17;47.68
9187;BME280;7273;48.902;9.410;2023-06-26T01:05:47;97938.84;;;19.13;47.83
9187;BME280;7273;48.902;9.410;2023-06-26T01:08:16;97936.78;;;19.10;47.96
9187;BME280;7273;48.902;9.410;2023-06-26T01:10:42;97937.25;;;19.12;47.90
9187;BME280;7273;48.902;9.410;2023-06-26T01:13:08;97928.91;;;19.08;47.82
9187;BME280;7273;48.902;9.410;2023-06-26T01:15:34;97936.66;;;19.06;48.07
9187;BME280;7273;48.902;9.410;2023-06-26T01:18:01;97933.44;;;19.04;47.88
9187;BME280;7273;48.902;9.410;2023-06-26T01:20:37;97934.59;;;19.03;48.75
9187;BME280;7273;48.902;9.410;2023-06-26T01:26:23;97928.81;;;18.96;48.38
9187;BME280;7273;48.902;9.410;2023-06-26T01:28:53;97924.72;;;19.02;48.14
9187;BME280;7273;48.902;9.410;2023-06-26T01:31:19;97921.06;;;18.98;48.18
9187;BME280;7273;48.902;9.410;2023-06-26T01:33:45;97916.72;;;18.97;48.38
9187;BME280;7273;48.902;9.410;2023-06-26T01:36:12;97922.53;;;18.96;48.40
9187;BME280;7273;48.902;9.410;2023-06-26T01:38:37;97921.28;;;18.93;48.42
9187;BME280;7273;48.902;9.410;2023-06-26T01:41:04;97910.44;;;18.97;48.51
9187;BME280;7273;48.902;9.410;2023-06-26T01:44:10;97909.84;;;18.91;50.07
9187;BME280;7273;48.902;9.410;2023-06-26T01:47:02;97909.22;;;18.86;49.82
9187;BME280;7273;48.902;9.410;2023-06-26T01:49:38;97912.19;;;18.81;49.39
9187;BME280;7273;48.902;9.410;2023-06-26T01:52:27;97918.31;;;18.77;50.08
9187;BME280;7273;48.902;9.410;2023-06-26T01:55:05;97914.16;;;18.71;53.49
9187;BME280;7273;48.902;9.410;2023-06-26T01:57:35;97911.41;;;18.71;48.88
9187;BME280;7273;48.902;9.410;2023-06-26T02:00:02;97910.47;;;18.67;48.88
9187;BME280;7273;48.902;9.410;2023-06-26T02:02:31;97915.03;;;18.63;49.30
9187;BME280;7273;48.902;9.410;2023-06-26T02:04:56;97917.75;;;18.63;49.21
9187;BME280;7273;48.902;9.410;2023-06-26T02:07:22;97913.28;;;18.59;49.24
9187;BME280;7273;48.902;9.410;2023-06-26T02:09:47;97914.75;;;18.56;49.14
9187;BME280;7273;48.902;9.410;2023-06-26T02:12:12;97914.75;;;18.56;49.26
9187;BME280;7273;48.902;9.410;2023-06-26T02:14:38;97907.38;;;18.48;49.41
9187;BME280;7273;48.902;9.410;2023-06-26T02:17:04;97912.03;;;18.48;49.45
9187;BME280;7273;48.902;9.410;2023-06-26T02:19:29;97910.13;;;18.48;49.35
9187;BME280;7273;48.902;9.410;2023-06-26T02:21:55;97904.16;;;18.46;49.54
9187;BME280;7273;48.902;9.410;2023-06-26T02:24:20;97908.72;;;18.42;49.56
9187;BME280;7273;48.902;9.410;2023-06-26T02:26:45;97911.25;;;18.47;49.54
9187;BME280;7273;48.902;9.410;2023-06-26T02:29:11;97909.63;;;18.46;49.50
9187;BME280;7273;48.902;9.410;2023-06-26T02:31:37;97912.38;;;18.46;49.48
9187;BME280;7273;48.902;9.410;2023-06-26T02:34:03;97913.19;;;18.47;49.41
9187;BME280;7273;48.902;9.410;2023-06-26T02:36:28;97909.97;;;18.45;49.66
9187;BME280;7273;48.902;9.410;2023-06-26T02:38:53;97913.03;;;18.43;49.69
9187;BME280;7273;48.902;9.410;2023-06-26T02:41:19;97911.44;;;18.42;49.62
9187;BME280;7273;48.902;9.410;2023-06-26T02:43:44;97910.97;;;18.40;49.55
9187;BME280;7273;48.902;9.410;2023-06-26T02:46:09;97911.78;;;18.41;49.72
9187;BME280;7273;48.902;9.410;2023-06-26T02:48:35;97907.91;;;18.42;49.60
9187;BME280;7273;48.902;9.410;2023-06-26T02:51:00;97905.16;;;18.42;49.63
9187;BME280;7273;48.902;9.410;2023-06-26T02:53:26;97905.97;;;18.42;49.75
9187;BME280;7273;48.902;9.410;2023-06-26T02:55:51;97896.78;;;18.38;49.85
9187;BME280;7273;48.902;9.410;2023-06-26T02:58:16;97900.66;;;18.37;49.96
9187;BME280;7273;48.902;9.410;2023-06-26T03:00:42;97909.19;;;18.36;49.89
9187;BME280;7273;48.902;9.410;2023-06-26T03:03:08;97906.47;;;18.36;49.96
9187;BME280;7273;48.902;9.410;2023-06-26T03:05:34;97909.72;;;18.29;50.16
9187;BME280;7273;48.902;9.410;2023-06-26T03:07:59;97906.00;;;18.25;50.26
9187;BME280;7273;48.902;9.410;2023-06-26T03:10:25;97905.25;;;18.25;50.19
9187;BME280;7273;48.902;9.410;2023-06-26T03:12:50;97903.94;;;18.22;50.28
9187;BME280;7273;48.902;9.410;2023-06-26T03:15:15;97905.41;;;18.20;50.33
9187;BME280;7273;48.902;9.410;2023-06-26T03:17:41;97908.50;;;18.18;50.46
9187;BME280;7273;48.902;9.410;2023-06-26T03:20:07;97903.19;;;18.13;50.42
9187;BME280;7273;48.902;9.410;2023-06-26T03:22:35;97905.13;;;18.13;50.65
9187;BME280;7273;48.902;9.410;2023-06-26T03:25:02;97901.09;;;18.10;50.52
9187;BME280;7273;48.902;9.410;2023-06-26T03:27:27;97895.94;;;18.09;50.55
9187;BME280;7273;48.902;9.410;2023-06-26T03:29:52;97907.88;;;18.04;50.69
9187;BME280;7273;48.902;9.410;2023-06-26T03:32:18;97897.56;;;18.10;50.59
9187;BME280;7273;48.902;9.410;2023-06-26T03:34:43;97910.44;;;18.09;50.52
9187;BME280;7273;48.902;9.410;2023-06-26T03:37:08;97900.16;;;18.06;50.80
9187;BME280;7273;48.902;9.410;2023-06-26T03:39:34;97907.22;;;18.07;50.67
9187;BME280;7273;48.902;9.410;2023-06-26T03:41:59;97908.56;;;18.01;50.79
9187;BME280;7273;48.902;9.410;2023-06-26T03:44:26;97907.56;;;18.06;50.82
9187;BME280;7273;48.902;9.410;2023-06-26T03:46:52;97916.41;;;18.11;50.74
9187;BME280;7273;48.902;9.410;2023-06-26T03:49:17;97908.56;;;18.01;50.90
9187;BME280;7273;48.902;9.410;2023-06-26T03:51:44;97908.22;;;18.03;50.99
9187;BME280;7273;48.902;9.410;2023-06-26T03:54:09;97918.84;;;18.04;51.02
9187;BME280;7273;48.902;9.410;2023-06-26T03:56:35;97916.44;;;18.03;51.14
9187;BME280;7273;48.902;9.410;2023-06-26T03:59:01;97917.25;;;18.03;51.03
9187;BME280;7273;48.902;9.410;2023-06-26T04:01:26;97917.41;;;18.07;51.05
9187;BME280;7273;48.902;9.410;2023-06-26T04:03:53;97921.56;;;18.04;51.17
9187;BME280;7273;48.902;9.410;2023-06-26T04:06:18;97914.50;;;18.03;51.12
9187;BME280;7273;48.902;9.410;2023-06-26T04:08:43;97915.63;;;18.02;51.29
9187;BME280;7273;48.902;9.410;2023-06-26T04:11:09;97919.50;;;18.01;51.43
9187;BME280;7273;48.902;9.410;2023-06-26T04:13:34;97915.94;;;18.01;51.53
9187;BME280;7273;48.902;9.410;2023-06-26T04:16:00;97920.75;;;18.04;51.46
9187;BME280;7273;48.902;9.410;2023-06-26T04:18:25;97926.22;;;18.12;51.39
9187;BME280;7273;48.902;9.410;2023-06-26T04:21:05;97924.44;;;18.16;52.43
9187;BME280;7273;48.902;9.410;2023-06-26T04:23:32;97930.25;;;18.15;56.32
9187;BME280;7273;48.902;9.410;2023-06-26T04:25:57;97936.16;;;18.17;51.37
9187;BME280;7273;48.902;9.410;2023-06-26T04:28:23;97940.53;;;18.18;51.29
9187;BME280;7273;48.902;9.410;2023-06-26T04:30:49;97937.31;;;18.16;51.28
9187;BME280;7273;48.902;9.410;2023-06-26T04:33:14;97935.53;;;18.20;51.13
9187;BME280;7273;48.902;9.410;2023-06-26T04:35:40;97930.38;;;18.18;51.34
9187;BME280;7273;48.902;9.410;2023-06-26T04:38:06;97925.69;;;18.19;51.31
9187;BME280;7273;48.902;9.410;2023-06-26T04:40:31;97932.78;;;18.20;51.51
9187;BME280;7273;48.902;9.410;2023-06-26T04:42:56;97929.72;;;18.21;51.31
9187;BME280;7273;48.902;9.410;2023-06-26T04:45:22;97925.03;;;18.22;51.43
9187;BME280;7273;48.902;9.410;2023-06-26T04:47:47;97929.22;;;18.28;51.32
9187;BME280;7273;48.902;9.410;2023-06-26T04:50:13;97927.41;;;18.32;51.40
9187;BME280;7273;48.902;9.410;2023-06-26T04:52:38;97920.00;;;18.32;51.32
9187;BME280;7273;48.902;9.410;2023-06-26T04:55:04;97920.63;;;18.38;51.44
9187;BME280;7273;48.902;9.410;2023-06-26T04:57:29;97924.47;;;18.45;51.32
9187;BME280;7273;48.902;9.410;2023-06-26T04:59:54;97924.44;;;18.54;51.19
9187;BME280;7273;48.902;9.410;2023-06-26T05:02:20;97921.16;;;18.60;51.37
9187;BME280;7273;48.902;9.410;2023-06-26T05:04:45;97916.44;;;18.69;51.26
9187;BME280;7273;48.902;9.410;2023-06-26T05:07:12;97919.94;;;18.79;51.30
9187;BME280;7273;48.902;9.410;2023-06-26T05:09:37;97916.78;;;18.89;51.24
9187;BME280;7273;48.902;9.410;2023-06-26T05:12:03;97910.44;;;18.97;51.02
9187;BME280;7273;48.902;9.410;2023-06-26T05:14:28;97909.22;;;19.06;51.01
9187;BME280;7273;48.902;9.410;2023-06-26T05:16:54;97912.59;;;19.12;51.07
9187;BME280;7273;48.902;9.410;2023-06-26T05:19:19;97916.19;;;19.24;51.06
9187;BME280;7273;48.902;9.410;2023-06-26T05:21:45;97918.19;;;19.36;50.86
9187;BME280;7273;48.902;9.410;2023-06-26T05:24:12;97918.22;;;19.48;50.85
9187;BME280;7273;48.902;9.410;2023-06-26T05:26:38;97915.06;;;19.58;50.75
9187;BME280;7273;48.902;9.410;2023-06-26T05:29:04;97918.19;;;19.68;50.83
9187;BME280;7273;48.902;9.410;2023-06-26T05:31:32;97921.91;;;19.84;50.96
9187;BME280;7273;48.902;9.410;2023-06-26T05:34:00;97913.78;;;19.88;51.01
9187;BME280;7273;48.902;9.410;2023-06-26T05:36:27;97930.16;;;19.96;50.99
9187;BME280;7273;48.902;9.410;2023-06-26T05:38:54;97924.00;;;19.99;51.02
9187;BME280;7273;48.902;9.410;2023-06-26T05:41:21;97922.41;;;20.11;51.03
9187;BME280;7273;48.902;9.410;2023-06-26T05:43:47;97920.72;;;20.18;51.15
9187;BME280;7273;48.902;9.410;2023-06-26T05:46:12;97920.59;;;20.27;51.16
9187;BME280;7273;48.902;9.410;2023-06-26T05:48:38;97917.16;;;20.30;51.41
9187;BME280;7273;48.902;9.410;2023-06-26T05:51:04;97938.34;;;20.41;51.29
9187;BME280;7273;48.902;9.410;2023-06-26T05:53:30;97920.13;;;20.61;51.15
9187;BME280;7273;48.902;9.410;2023-06-26T05:55:56;97924.47;;;20.74;51.25
9187;BME280;7273;48.902;9.410;2023-06-26T05:58:23;97933.19;;;20.88;51.20
9187;BME280;7273;48.902;9.410;2023-06-26T06:00:50;97920.44;;;21.07;51.00
9187;BME280;7273;48.902;9.410;2023-06-26T06:03:15;97930.50;;;21.15;51.14
9187;BME280;7273;48.902;9.410;2023-06-26T06:05:40;97932.31;;;21.23;51.02
9187;BME280;7273;48.902;9.410;2023-06-26T06:08:06;97924.38;;;21.34;51.13
9187;BME280;7273;48.902;9.410;2023-06-26T06:10:31;97935.38;;;21.34;51.39
9187;BME280;7273;48.902;9.410;2023-06-26T06:12:57;97931.53;;;21.51;51.02
9187;BME280;7273;48.902;9.410;2023-06-26T06:15:22;97930.09;;;21.69;51.05
9187;BME280;7273;48.902;9.410;2023-06-26T06:17:47;97932.69;;;21.77;51.18
9187;BME280;7273;48.902;9.410;2023-06-26T06:20:13;97926.94;;;21.82;51.19
9187;BME280;7273;48.902;9.410;2023-06-26T06:22:38;97927.59;;;21.91;51.14
9187;BME280;7273;48.902;9.410;2023-06-26T06:25:04;97928.66;;;22.02;51.04
9187;BME280;7273;48.902;9.410;2023-06-26T06:27:29;97927.41;;;22.15;51.07
9187;BME280;7273;48.902;9.410;2023-06-26T06:29:56;97925.22;;;22.21;50.96
9187;BME280;7273;48.902;9.410;2023-06-26T06:32:21;97923.16;;;22.33;50.94
9187;BME280;7273;48.902;9.410;2023-06-26T06:34:46;97924.66;;;22.46;50.87
9187;BME280;7273;48.902;9.410;2023-06-26T06:37:12;97932.59;;;22.64;50.26
9187;BME280;7273;48.902;9.410;2023-06-26T06:39:37;97925.38;;;22.75;50.20
9187;BME280;7273;48.902;9.410;2023-06-26T06:42:03;97927.72;;;22.92;49.98
9187;BME280;7273;48.902;9.410;2023-06-26T06:44:28;97928.03;;;23.06;50.07
9187;BME280;7273;48.902;9.410;2023-06-26T06:46:55;97927.47;;;23.16;50.29
9187;BME280;7273;48.902;9.410;2023-06-26T06:49:21;97928.81;;;23.41;49.85
9187;BME280;7273;48.902;9.410;2023-06-26T06:51:46;97935.66;;;23.47;49.73
9187;BME280;7273;48.902;9.410;2023-06-26T06:54:12;97931.28;;;23.65;49.74
9187;BME280;7273;48.902;9.410;2023-06-26T06:56:37;97933.03;;;23.73;49.55
9187;BME280;7273;48.902;9.410;2023-06-26T06:59:02;97934.94;;;23.91;49.13
9187;BME280;7273;48.902;9.410;2023-06-26T07:01:28;97947.97;;;24.10;48.92
9187;BME280;7273;48.902;9.410;2023-06-26T07:03:53;97942.63;;;24.21;48.65
9187;BME280;7273;48.902;9.410;2023-06-26T07:06:19;97937.59;;;24.26;49.02
9187;BME280;7273;48.902;9.410;2023-06-26T07:08:44;97940.59;;;24.40;48.62
9187;BME280;7273;48.902;9.410;2023-06-26T07:11:09;97934.03;;;24.48;48.82
9187;BME280;7273;48.902;9.410;2023-06-26T07:13:35;97934.63;;;24.61;48.71
9187;BME280;7273;48.902;9.410;2023-06-26T07:16:00;97932.06;;;24.71;48.51
9187;BME280;7273;48.902;9.410;2023-06-26T07:18:26;97934.91;;;24.78;48.28
9187;BME280;7273;48.902;9.410;2023-06-26T07:20:51;97939.81;;;24.88;47.79
9187;BME280;7273;48.902;9.410;2023-06-26T07:23:16;97942.38;;;25.00;47.73
9187;BME280;7273;48.902;9.410;2023-06-26T07:25:42;97936.84;;;25.00;47.71
9187;BME280;7273;48.902;9.410;2023-06-26T07:28:11;97937.34;;;25.09;47.75
9187;BME280;7273;48.902;9.410;2023-06-26T07:30:36;97939.38;;;25.12;47.73
9187;BME280;7273;48.902;9.410;2023-06-26T07:33:02;97945.56;;;25.32;47.87
9187;BME280;7273;48.902;9.410;2023-06-26T07:35:27;97952.72;;;25.33;47.66
9187;BME280;7273;48.902;9.410;2023-06-26T07:37:53;97941.72;;;25.37;47.44
9187;BME280;7273;48.902;9.410;2023-06-26T07:40:18;97939.25;;;25.32;47.63
9187;BME280;7273;48.902;9.410;2023-06-26T07:42:43;97939.13;;;25.51;47.33
9187;BME280;7273;48.902;9.410;2023-06-26T07:45:09;97942.44;;;25.63;47.03
9187;BME280;7273;48.902;9.410;2023-06-26T07:47:37;97948.88;;;25.71;45.08
9187;BME280;7273;48.902;9.410;2023-06-26T07:50:03;97945.09;;;25.86;46.48
9187;BME280;7273;48.902;9.410;2023-06-26T07:52:28;97945.09;;;25.86;46.30
9187;BME280;7273;48.902;9.410;2023-06-26T07:54:55;97953.19;;;26.01;46.19
9187;BME280;7273;48.902;9.410;2023-06-26T07:57:21;97946.56;;;26.09;45.99
9187;BME280;7273;48.902;9.410;2023-06-26T07:59:46;97949.31;;;26.09;45.91
9187;BME280;7273;48.902;9.410;2023-06-26T08:02:12;97951.47;;;26.26;45.79
9187;BME280;7273;48.902;9.410;2023-06-26T08:04:37;97953.50;;;26.29;45.78
9187;BME280;7273;48.902;9.410;2023-06-26T08:07:03;97949.97;;;26.36;45.78
9187;BME280;7273;48.902;9.410;2023-06-26T08:09:31;97940.19;;;26.49;46.04
9187;BME280;7273;48.902;9.410;2023-06-26T08:11:57;97930.38;;;26.62;45.80
9187;BME280;7273;48.902;9.410;2023-06-26T08:14:23;97940.06;;;26.79;45.68
9187;BME280;7273;48.902;9.410;2023-06-26T08:16:49;97944.03;;;26.81;45.53
9187;BME280;7273;48.902;9.410;2023-06-26T08:19:16;97946.06;;;26.88;45.64
9187;BME280;7273;48.902;9.410;2023-06-26T08:21:43;97943.00;;;27.03;45.40
9187;BME280;7273;48.902;9.410;2023-06-26T08:24:09;97941.88;;;27.11;45.48
9187;BME280;7273;48.902;9.410;2023-06-26T08:26:34;97934.75;;;27.17;45.31
9187;BME280;7273;48.902;9.410;2023-06-26T08:29:00;97944.81;;;27.36;44.94
9187;BME280;7273;48.902;9.410;2023-06-26T08:31:25;97934.50;;;27.33;45.11
9187;BME280;7273;48.902;9.410;2023-06-26T08:33:51;97940.91;;;27.47;44.95
9187;BME280;7273;48.902;9.410;2023-06-26T08:36:16;97944.88;;;27.43;44.74
9187;BME280;7273;48.902;9.410;2023-06-26T08:38:41;97934.16;;;27.48;44.57
9187;BME280;7273;48.902;9.410;2023-06-26T08:41:07;97931.38;;;27.48;44.54
9187;BME280;7273;48.902;9.410;2023-06-26T08:43:34;97934.13;;;27.45;44.24
9187;BME280;7273;48.902;9.410;2023-06-26T08:46:00;97940.13;;;27.50;44.35
9187;BME280;7273;48.902;9.410;2023-06-26T08:48:25;97931.44;;;27.59;44.44
9187;BME280;7273;48.902;9.410;2023-06-26T08:50:52;97937.03;;;27.73;44.11
9187;BME280;7273;48.902;9.410;2023-06-26T08:53:29;97941.41;;;27.74;44.01
9187;BME280;7273;48.902;9.410;2023-06-26T08:55:57;97935.53;;;27.90;43.98
9187;BME280;7273;48.902;9.410;2023-06-26T08:58:23;97933.97;;;28.06;44.07
9187;BME280;7273;48.902;9.410;2023-06-26T09:00:48;97930.41;;;27.99;43.85
9187;BME280;7273;48.902;9.410;2023-06-26T09:03:15;97933.59;;;28.25;43.75
9187;BME280;7273;48.902;9.410;2023-06-26T09:05:40;97929.66;;;28.33;43.88
9187;BME280;7273;48.902;9.410;2023-06-26T09:08:07;97936.44;;;28.43;43.55
9187;BME280;7273;48.902;9.410;2023-06-26T09:10:32;97937.22;;;28.47;43.63
9187;BME280;7273;48.902;9.410;2023-06-26T09:12:58;97941.19;;;28.46;43.40
9187;BME280;7273;48.902;9.410;2023-06-26T09:15:24;97941.63;;;28.58;43.43
9187;BME280;7273;48.902;9.410;2023-06-26T09:17:49;97931.66;;;28.71;43.08
9187;BME280;7273;48.902;9.410;2023-06-26T09:20:15;97932.09;;;28.80;43.25
9187;BME280;7273;48.902;9.410;2023-06-26T09:22:42;97929.66;;;29.00;43.15
9187;BME280;7273;48.902;9.410;2023-06-26T09:25:08;97937.63;;;28.94;43.15
9187;BME280;7273;48.902;9.410;2023-06-26T09:27:35;97931.63;;;29.21;42.88
9187;BME280;7273;48.902;9.410;2023-06-26T09:30:04;97930.41;;;29.25;42.75
9187;BME280;7273;48.902;9.410;2023-06-26T09:32:34;97930.81;;;29.31;42.66
9187;BME280;7273;48.902;9.410;2023-06-26T09:35:02;97928.44;;;29.29;42.68
9187;BME280;7273;48.902;9.410;2023-06-26T09:37:27;97936.78;;;29.33;42.66
9187;BME280;7273;48.902;9.410;2023-06-26T09:39:53;97917.19;;;29.54;42.40
9187;BME280;7273;48.902;9.410;2023-06-26T09:42:19;97927.13;;;29.51;42.30
9187;BME280;7273;48.902;9.410;2023-06-26T09:44:46;97915.53;;;29.74;42.46
9187;BME280;7273;48.902;9.410;2023-06-26T09:47:11;97922.63;;;29.89;42.41
9187;BME280;7273;48.902;9.410;2023-06-26T09:49:41;97926.50;;;30.05;42.04
9187;BME280;7273;48.902;9.410;2023-06-26T09:52:07;97922.09;;;30.11;42.28
9187;BME280;7273;48.902;9.410;2023-06-26T09:54:33;97922.84;;;30.23;42.10
9187;BME280;7273;48.902;9.410;2023-06-26T09:57:08;97919.19;;;30.36;41.49
9187;BME280;7273;48.902;9.410;2023-06-26T09:59:34;97919.06;;;30.50;41.87
9187;BME280;7273;48.902;9.410;2023-06-26T10:02:00;97913.41;;;30.61;41.62
9187;BME280;7273;48.902;9.410;2023-06-26T10:04:26;97921.78;;;30.57;41.58
9187;BME280;7273;48.902;9.410;2023-06-26T10:06:54;97920.91;;;30.67;41.51
9187;BME280;7273;48.902;9.410;2023-06-26T10:09:22;97914.44;;;30.77;41.54
9187;BME280;7273;48.902;9.410;2023-06-26T10:11:53;97922.91;;;30.67;40.23
9187;BME280;7273;48.902;9.410;2023-06-26T10:14:21;97916.41;;;30.84;40.58
9187;BME280;7273;48.902;9.410;2023-06-26T10:16:50;97914.38;;;30.84;40.53
9187;BME280;7273;48.902;9.410;2023-06-26T10:19:18;97926.78;;;30.83;40.41
9187;BME280;7273;48.902;9.410;2023-06-26T10:21:53;97914.63;;;31.00;40.47
9187;BME280;7273;48.902;9.410;2023-06-26T10:24:20;97919.53;;;31.26;40.40
9187;BME280;7273;48.902;9.410;2023-06-26T10:26:50;97925.06;;;31.37;40.42
9187;BME280;7273;48.902;9.410;2023-06-26T10:29:18;97930.19;;;31.42;40.41
9187;BME280;7273;48.902;9.410;2023-06-26T10:31:50;97920.63;;;31.39;40.07
9187;BME280;7273;48.902;9.410;2023-06-26T10:34:17;97923.72;;;31.48;40.69
9187;BME280;7273;48.902;9.410;2023-06-26T10:36:42;97931.06;;;31.35;40.55
9187;BME280;7273;48.902;9.410;2023-06-26T10:39:08;97931.88;;;31.36;40.67
9187;BME280;7273;48.902;9.410;2023-06-26T10:41:37;97935.13;;;31.27;40.24
9187;BME280;7273;48.902;9.410;2023-06-26T10:44:11;97932.13;;;31.08;39.69
9187;BME280;7273;48.902;9.410;2023-06-26T10:47:03;97936.53;;;31.05;39.50
9187;BME280;7273;48.902;9.410;2023-06-26T10:49:29;97931.03;;;30.98;40.61
9187;BME280;7273;48.902;9.410;2023-06-26T10:51:54;97946.50;;;31.10;40.34
9187;BME280;7273;48.902;9.410;2023-06-26T10:54:23;97938.16;;;31.03;40.62
9187;BME280;7273;48.902;9.410;2023-06-26T10:56:49;97937.03;;;30.97;40.21
9187;BME280;7273;48.902;9.410;2023-06-26T10:59:20;97931.38;;;31.04;39.97
9187;BME280;7273;48.902;9.410;2023-06-26T11:01:54;97933.66;;;31.16;40.29
9187;BME280;7273;48.902;9.410;2023-06-26T11:04:47;97928.00;;;31.23;39.05
9187;BME280;7273;48.902;9.410;2023-06-26T11:10:08;97933.59;;;31.57;39.29
9187;BME280;7273;48.902;9.410;2023-06-26T11:12:40;97931.13;;;31.66;37.56
9187;BME280;7273;48.902;9.410;2023-06-26T11:15:14;97934.44;;;31.84;38.98
9187;BME280;7273;48.902;9.410;2023-06-26T11:17:43;97947.28;;;31.81;39.56
9187;BME280;7273;48.902;9.410;2023-06-26T11:20:14;97941.97;;;31.90;39.79
9187;BME280;7273;48.902;9.410;2023-06-26T11:22:41;97941.38;;;32.06;39.62
9187;BME280;7273;48.902;9.410;2023-06-26T11:25:08;97938.91;;;32.11;39.86
9187;BME280;7273;48.902;9.410;2023-06-26T11:30:08;97945.41;;;32.05;39.65
9187;BME280;7273;48.902;9.410;2023-06-26T11:32:36;97942.53;;;32.08;39.68
9187;BME280;7273;48.902;9.410;2023-06-26T11:35:01;97944.84;;;31.87;40.05
9187;BME280;7273;48.902;9.410;2023-06-26T11:37:26;97954.75;;;31.58;40.06
9187;BME280;7273;48.902;9.410;2023-06-26T11:39:52;97954.69;;;31.65;40.10
9187;BME280;7273;48.902;9.410;2023-06-26T11:42:19;97953.06;;;31.67;40.10
9187;BME280;7273;48.902;9.410;2023-06-26T11:44:45;97956.38;;;31.59;39.98
9187;BME280;7273;48.902;9.410;2023-06-26T11:47:18;97950.75;;;31.92;39.40
9187;BME280;7273;48.902;9.410;2023-06-26T11:49:48;97950.22;;;32.57;39.44
9187;BME280;7273;48.902;9.410;2023-06-26T11:52:15;97960.53;;;32.91;39.61
9187;BME280;7273;48.902;9.410;2023-06-26T11:54:41;97955.06;;;33.26;39.62
9187;BME280;7273;48.902;9.410;2023-06-26T11:57:07;97958.03;;;33.42;39.48
9187;BME280;7273;48.902;9.410;2023-06-26T11:59:39;97961.03;;;33.71;39.10
9187;BME280;7273;48.902;9.410;2023-06-26T12:02:10;97955.91;;;33.46;39.31
9187;BME280;7273;48.902;9.410;2023-06-26T12:04:38;97967.72;;;33.34;39.92
9187;BME280;7273;48.902;9.410;2023-06-26T12:07:06;97976.00;;;32.99;40.05
9187;BME280;7273;48.902;9.410;2023-06-26T12:09:37;97975.59;;;32.73;40.15
9187;BME280;7273;48.902;9.410;2023-06-26T12:12:03;97972.06;;;32.43;40.34
9187;BME280;7273;48.902;9.410;2023-06-26T12:14:30;97975.31;;;32.11;40.43
9187;BME280;7273;48.902;9.410;2023-06-26T12:17:04;97984.25;;;31.99;38.42
9187;BME280;7273;48.902;9.410;2023-06-26T12:19:29;97982.22;;;32.03;40.68
9187;BME280;7273;48.902;9.410;2023-06-26T12:21:55;97978.50;;;31.80;41.11
9187;BME280;7273;48.902;9.410;2023-06-26T12:24:22;97975.38;;;31.71;41.16
9187;BME280;7273;48.902;9.410;2023-06-26T12:26:53;97972.94;;;31.76;40.40
9187;BME280;7273;48.902;9.410;2023-06-26T12:29:20;97975.03;;;31.69;40.72
9187;BME280;7273;48.902;9.410;2023-06-26T12:31:51;97974.03;;;31.52;40.69
9187;BME280;7273;48.902;9.410;2023-06-26T12:34:20;97979.03;;;31.27;41.28
9187;BME280;7273;48.902;9.410;2023-06-26T12:36:48;97965.53;;;31.22;40.73
9187;BME280;7273;48.902;9.410;2023-06-26T12:39:24;97972.44;;;31.07;40.91
9187;BME280;7273;48.902;9.410;2023-06-26T12:41:54;97974.66;;;30.85;41.40
9187;BME280;7273;48.902;9.410;2023-06-26T12:44:30;97959.63;;;30.65;40.93
9187;BME280;7273;48.902;9.410;2023-06-26T12:47:00;97973.88;;;30.85;41.12
9187;BME280;7273;48.902;9.410;2023-06-26T12:49:36;97951.78;;;30.97;41.64
9187;BME280;7273;48.902;9.410;2023-06-26T12:52:10;97964.59;;;30.95;40.86
9187;BME280;7273;48.902;9.410;2023-06-26T12:54:37;97957.72;;;31.03;41.35
9187;BME280;7273;48.902;9.410;2023-06-26T12:57:03;97962.09;;;31.04;40.98
9187;BME280;7273;48.902;9.410;2023-06-26T12:59:30;97965.66;;;31.11;40.96
9187;BME280;7273;48.902;9.410;2023-06-26T13:01:56;97964.47;;;31.05;41.13
9187;BME280;7273;48.902;9.410;2023-06-26T13:04:21;97953.81;;;30.97;41.02
9187;BME280;7273;48.902;9.410;2023-06-26T13:06:47;97958.88;;;31.09;40.74
9187;BME280;7273;48.902;9.410;2023-06-26T13:09:12;97956.09;;;31.05;40.74
9187;BME280;7273;48.902;9.410;2023-06-26T13:11:38;97956.50;;;31.04;40.96
9187;BME280;7273;48.902;9.410;2023-06-26T13:14:03;97959.63;;;31.13;40.85
9187;BME280;7273;48.902;9.410;2023-06-26T13:16:29;97950.44;;;31.12;41.14
9187;BME280;7273;48.902;9.410;2023-06-26T13:18:55;97956.91;;;31.06;41.03
9187;BME280;7273;48.902;9.410;2023-06-26T13:21:21;97950.94;;;31.04;41.09
9187;BME280;7273;48.902;9.410;2023-06-26T13:23:47;97951.72;;;31.04;40.75
9187;BME280;7273;48.902;9.410;2023-06-26T13:26:12;97946.63;;;30.96;40.79
9187;BME280;7273;48.902;9.410;2023-06-26T13:28:38;97952.94;;;31.03;41.07
9187;BME280;7273;48.902;9.410;2023-06-26T13:31:04;97950.94;;;31.04;40.89